createdAt,value
2022-09-30T00:00:31.359Z,100660.75
2022-09-30T00:03:16.848Z,100650.34
2022-09-30T00:06:08.498Z,100658.13
2022-09-30T00:08:55.918Z,100657.34
2022-09-30T00:11:42.844Z,100647.88
2022-09-30T00:14:28.409Z,100654.84
2022-09-30T00:17:13.892Z,100650.59
2022-09-30T00:19:59.176Z,100654.91
2022-09-30T00:22:45.056Z,100651.44
2022-09-30T00:25:30.684Z,100629.72
2022-09-30T00:28:16.814Z,100625.34
2022-09-30T00:31:06.573Z,100619.22
2022-09-30T00:34:07.440Z,100615.75
2022-09-30T00:36:55.856Z,100614.84
2022-09-30T00:39:41.666Z,100612.25
2022-09-30T00:42:30.158Z,100607.94
2022-09-30T00:45:18.129Z,100606.22
2022-09-30T00:48:06.893Z,100600.16
2022-09-30T00:50:55.644Z,100594.09
2022-09-30T00:54:00.094Z,100590.59
2022-09-30T00:56:53.140Z,100593.19
2022-09-30T00:59:43.369Z,100582.81
2022-09-30T01:02:28.953Z,100587.16
2022-09-30T01:05:14.756Z,100581.97
2022-09-30T01:08:03.957Z,100569.81
2022-09-30T01:10:49.322Z,100560.31
2022-09-30T01:13:37.248Z,100544.72
2022-09-30T01:16:44.147Z,100535.16
2022-09-30T01:19:41.777Z,100529.97
2022-09-30T01:23:14.597Z,100523.03
2022-09-30T01:26:30.954Z,100530.81
2022-09-30T01:29:40.516Z,100519.56
2022-09-30T01:32:44.873Z,100513.53
2022-09-30T01:35:48.941Z,100519.59
2022-09-30T01:38:50.031Z,100506.59
2022-09-30T01:41:50.267Z,100488.38
2022-09-30T01:45:18.583Z,100488.38
2022-09-30T01:48:29.034Z,100488.38
2022-09-30T01:51:29.200Z,100471.06
2022-09-30T01:54:17.575Z,100466.72
2022-09-30T01:57:24.456Z,100471.94
2022-09-30T02:00:11.740Z,100473.69
2022-09-30T02:03:06.166Z,100472.81
2022-09-30T02:05:58.292Z,100474.56
2022-09-30T02:09:14.004Z,100452.06
2022-09-30T02:12:05.008Z,100445.97
2022-09-30T02:15:12.298Z,100448.56
2022-09-30T02:18:27.336Z,100429.53
2022-09-30T02:21:18.411Z,100417.38
2022-09-30T02:24:10.032Z,100410.44
2022-09-30T02:26:58.372Z,100408.72
2022-09-30T02:29:50.335Z,100400.06
2022-09-30T02:32:47.041Z,100385.31
2022-09-30T02:35:35.256Z,100382.69
2022-09-30T02:38:27.017Z,100375.78
2022-09-30T02:41:21.775Z,100364.50
2022-09-30T02:44:07.615Z,100354.06
2022-09-30T02:47:16.345Z,100350.56
2022-09-30T02:50:29.093Z,100337.56
2022-09-30T02:53:35.446Z,100323.66
2022-09-30T02:56:35.645Z,100325.38
2022-09-30T02:59:23.622Z,100311.47
2022-09-30T03:02:09.166Z,100315.78
2022-09-30T03:04:54.599Z,100304.44
2022-09-30T03:07:40.985Z,100307.91
2022-09-30T03:10:27.744Z,100280.94
2022-09-30T03:13:13.458Z,100278.34
2022-09-30T03:16:04.903Z,100273.13
2022-09-30T03:19:11.106Z,100273.13
2022-09-30T03:22:11.703Z,100266.13
2022-09-30T03:25:24.048Z,100254.78
2022-09-30T03:28:32.649Z,100235.66
2022-09-30T03:31:42.569Z,100215.56
2022-09-30T03:35:04.075Z,100200.72
2022-09-30T03:37:58.910Z,100196.28
2022-09-30T03:40:44.457Z,100191.94
2022-09-30T03:43:49.416Z,100178.88
2022-09-30T03:46:51.877Z,100183.16
2022-09-30T03:49:48.178Z,100176.13
2022-09-30T03:52:35.428Z,100162.16
2022-09-30T03:55:23.382Z,100156.03
2022-09-30T03:58:09.601Z,100142.16
2022-09-30T04:00:57.184Z,100129.94
2022-09-30T04:03:43.342Z,100118.66
2022-09-30T04:06:28.622Z,100118.63
2022-09-30T04:09:14.280Z,100099.50
2022-09-30T04:11:59.961Z,100099.47
2022-09-30T04:14:45.337Z,100093.38
2022-09-30T04:17:31.117Z,100092.53
2022-09-30T04:20:16.396Z,100099.50
2022-09-30T04:23:02.831Z,100094.31
2022-09-30T04:25:55.181Z,100095.16
2022-09-30T04:28:40.986Z,100090.88
2022-09-30T04:31:26.745Z,100086.47
2022-09-30T04:34:12.649Z,100076.03
2022-09-30T04:36:58.054Z,100069.16
2022-09-30T04:39:44.339Z,100072.63
2022-09-30T04:42:29.936Z,100068.34
2022-09-30T04:45:15.593Z,100051.84
2022-09-30T04:48:01.546Z,100033.59
2022-09-30T04:50:46.958Z,100024.03
2022-09-30T04:53:33.051Z,100024.91
2022-09-30T04:56:18.640Z,100021.47
2022-09-30T04:59:04.223Z,100003.25
2022-09-30T05:01:49.866Z,99998.94
2022-09-30T05:04:35.117Z,99992.00
2022-09-30T05:07:20.375Z,99981.56
2022-09-30T05:10:07.585Z,99973.72
2022-09-30T05:12:53.385Z,99968.47
2022-09-30T05:15:38.772Z,99951.13
2022-09-30T05:18:26.469Z,99943.25
2022-09-30T05:21:14.380Z,99925.84
2022-09-30T05:24:00.059Z,99916.28
2022-09-30T05:26:45.359Z,99907.59
2022-09-30T05:29:31.206Z,99897.19
2022-09-30T05:32:18.540Z,99898.03
2022-09-30T05:35:04.203Z,99888.50
2022-09-30T05:37:49.787Z,99879.75
2022-09-30T05:40:39.024Z,99876.25
2022-09-30T05:43:24.740Z,99876.22
2022-09-30T05:46:10.184Z,99870.06
2022-09-30T05:48:55.772Z,99851.75
2022-09-30T05:51:41.141Z,99835.19
2022-09-30T05:54:26.665Z,99836.03
2022-09-30T05:57:11.877Z,99822.06
2022-09-30T05:59:58.161Z,99814.22
2022-09-30T06:02:44.728Z,99795.94
2022-09-30T06:05:29.978Z,99786.25
2022-09-30T06:08:16.143Z,99776.69
2022-09-30T06:11:02.109Z,99758.34
2022-09-30T06:13:49.264Z,99732.16
2022-09-30T06:16:35.006Z,99716.38
2022-09-30T06:19:21.309Z,99703.25
2022-09-30T06:22:07.158Z,99710.13
2022-09-30T06:24:55.125Z,99696.97
2022-09-30T06:27:46.559Z,99695.16
2022-09-30T06:30:35.194Z,99706.44
2022-09-30T06:33:22.426Z,99709.88
2022-09-30T06:36:08.081Z,99701.81
2022-09-30T06:38:54.575Z,99700.03
2022-09-30T06:41:44.164Z,99694.75
2022-09-30T06:44:47.965Z,99681.66
2022-09-30T06:47:35.190Z,99665.06
2022-09-30T06:50:25.683Z,99653.78
2022-09-30T06:53:13.195Z,99649.28
2022-09-30T06:55:58.659Z,99645.72
2022-09-30T06:58:47.520Z,99644.88
2022-09-30T07:01:33.023Z,99638.72
2022-09-30T07:04:18.718Z,99625.63
2022-09-30T07:07:04.419Z,99628.16
2022-09-30T07:09:50.140Z,99628.00
2022-09-30T07:12:36.339Z,99625.16
2022-09-30T07:15:23.330Z,99618.06
2022-09-30T07:18:08.996Z,99610.09
2022-09-30T07:20:56.101Z,99593.50
2022-09-30T07:23:48.155Z,99579.47
2022-09-30T07:26:33.830Z,99573.19
2022-09-30T07:29:19.293Z,99548.66
2022-09-30T07:32:05.017Z,99528.59
2022-09-30T07:34:50.760Z,99523.19
2022-09-30T07:37:36.361Z,99532.69
2022-09-30T07:40:21.889Z,99520.47
2022-09-30T07:43:07.183Z,99514.28
2022-09-30T07:45:56.299Z,99507.22
2022-09-30T07:48:47.161Z,99490.94
2022-09-30T07:51:36.865Z,99486.28
2022-09-30T07:54:29.237Z,99453.13
2022-09-30T07:57:15.180Z,99441.66
2022-09-30T08:00:12.033Z,99439.78
2022-09-30T08:03:06.308Z,99458.94
2022-09-30T08:05:51.961Z,99455.34
2022-09-30T08:08:38.185Z,99414.31
2022-09-30T08:11:24.530Z,99389.00
2022-09-30T08:14:19.417Z,99388.94
2022-09-30T08:17:04.786Z,99350.41
2022-09-30T08:19:50.185Z,99344.91
2022-09-30T08:22:35.590Z,99339.00
2022-09-30T08:25:24.566Z,99327.56
2022-09-30T08:28:09.953Z,99328.31
2022-09-30T08:30:55.493Z,99309.91
2022-09-30T08:33:42.151Z,99321.19
2022-09-30T08:36:28.095Z,99296.53
2022-09-30T08:39:13.891Z,99271.19
2022-09-30T08:42:36.554Z,99275.41
2022-09-30T08:45:37.433Z,99254.25
2022-09-30T08:48:35.457Z,99241.81
2022-09-30T08:51:38.513Z,99212.84
2022-09-30T08:54:30.116Z,99212.59
2022-09-30T08:57:16.957Z,99184.50
2022-09-30T09:00:09.091Z,99183.56
2022-09-30T09:02:59.950Z,99155.56
2022-09-30T09:05:54.839Z,99163.31
2022-09-30T09:08:53.887Z,99153.47
2022-09-30T09:11:56.617Z,99140.81
2022-09-30T09:15:09.364Z,99130.00
2022-09-30T09:18:23.186Z,99132.22
2022-09-30T09:21:32.181Z,99095.16
2022-09-30T09:24:21.817Z,99093.75
2022-09-30T09:27:21.325Z,99092.44
2022-09-30T09:30:10.994Z,99075.72
2022-09-30T09:33:01.009Z,99097.09
2022-09-30T09:36:05.189Z,99097.69
2022-09-30T09:39:11.971Z,99084.38
2022-09-30T09:42:05.911Z,99086.28
2022-09-30T09:45:05.075Z,99099.59
2022-09-30T09:47:54.235Z,99091.72
2022-09-30T09:51:06.843Z,99091.72
2022-09-30T09:53:59.430Z,99081.16
2022-09-30T09:56:45.101Z,99082.53
2022-09-30T09:59:31.455Z,99085.81
2022-09-30T10:02:26.384Z,99083.97
2022-09-30T10:05:26.327Z,99064.56
2022-09-30T10:08:22.849Z,99076.88
2022-09-30T10:11:21.112Z,99055.97
2022-09-30T10:14:20.555Z,99063.91
2022-09-30T10:17:17.980Z,99063.00
2022-09-30T10:20:08.884Z,99052.44
2022-09-30T10:23:19.390Z,99051.38
2022-09-30T10:26:14.019Z,99025.00
2022-09-30T10:29:02.467Z,99017.78
2022-09-30T10:31:50.817Z,99023.88
2022-09-30T10:34:44.122Z,99000.78
2022-09-30T10:37:29.758Z,98986.56
2022-09-30T10:40:18.609Z,98990.59
2022-09-30T10:43:04.167Z,98993.94
2022-09-30T10:46:13.517Z,98958.91
2022-09-30T10:48:59.018Z,98950.09
2022-09-30T10:51:46.202Z,98949.81
2022-09-30T10:54:40.837Z,98943.44
2022-09-30T10:57:32.634Z,98967.63
2022-09-30T11:00:22.038Z,98943.56
2022-09-30T11:03:13.503Z,98928.06
2022-09-30T11:06:00.485Z,98940.03
2022-09-30T11:09:10.502Z,98932.69
2022-09-30T11:12:02.766Z,98928.84
2022-09-30T11:15:08.173Z,98918.00
2022-09-30T11:18:11.897Z,98923.72
2022-09-30T11:21:02.030Z,98912.13
2022-09-30T11:23:55.208Z,98898.06
2022-09-30T11:26:44.017Z,98899.47
2022-09-30T11:29:49.484Z,98901.75
2022-09-30T11:33:05.592Z,98885.75
2022-09-30T11:36:32.545Z,98895.09
2022-09-30T11:39:55.343Z,98890.84
2022-09-30T11:43:21.973Z,98896.00
2022-09-30T11:46:28.983Z,98906.59
2022-09-30T11:49:30.253Z,98903.31
2022-09-30T11:52:35.548Z,98904.56
2022-09-30T11:55:39.943Z,98897.91
2022-09-30T11:58:47.068Z,98903.63
2022-09-30T12:01:44.652Z,98928.31
2022-09-30T12:04:40.697Z,98936.31
2022-09-30T12:07:44.933Z,98938.19
2022-09-30T12:10:39.090Z,98946.31
2022-09-30T12:13:30.018Z,98953.47
2022-09-30T12:16:20.216Z,98948.53
2022-09-30T12:19:15.516Z,98975.88
2022-09-30T12:22:28.790Z,98986.38
2022-09-30T12:25:22.392Z,98985.16
2022-09-30T12:28:43.199Z,98991.19
2022-09-30T12:32:04.042Z,99011.19
2022-09-30T12:34:52.692Z,99019.31
2022-09-30T12:37:48.755Z,99026.84
2022-09-30T12:40:52.076Z,99037.13
2022-09-30T12:43:59.215Z,99050.78
2022-09-30T12:47:12.292Z,99040.97
2022-09-30T12:50:00.726Z,99016.75
2022-09-30T12:52:46.670Z,99011.81
2022-09-30T12:55:40.582Z,99014.13
2022-09-30T12:58:31.684Z,99015.78
2022-09-30T13:01:37.129Z,99016.19
2022-09-30T13:04:39.188Z,99015.19
2022-09-30T13:07:24.447Z,99012.56
2022-09-30T13:10:27.389Z,98995.97
2022-09-30T13:13:13.073Z,98988.59
2022-09-30T13:16:03.796Z,98991.25
2022-09-30T13:18:52.306Z,98986.06
2022-09-30T13:21:37.525Z,98985.66
2022-09-30T13:25:00.862Z,98993.03
2022-09-30T13:28:13.623Z,98994.69
2022-09-30T13:31:23.889Z,98987.41
2022-09-30T13:34:21.510Z,98993.03
2022-09-30T13:37:34.485Z,98997.56
2022-09-30T13:40:43.334Z,98997.94
2022-09-30T13:43:39.265Z,98992.16
2022-09-30T13:46:43.499Z,98994.69
2022-09-30T13:49:56.545Z,99007.00
2022-09-30T13:52:45.995Z,99005.78
2022-09-30T13:55:47.718Z,99014.53
2022-09-30T13:58:55.173Z,99007.19
2022-09-30T14:01:50.240Z,99020.38
2022-09-30T14:04:50.786Z,99019.19
2022-09-30T14:08:01.108Z,99020.19
2022-09-30T14:11:04.887Z,99017.25
2022-09-30T14:13:53.153Z,99010.72
2022-09-30T14:16:53.538Z,99011.97
2022-09-30T14:19:48.512Z,99026.81
2022-09-30T14:22:36.931Z,99024.34
2022-09-30T14:25:22.926Z,99027.59
2022-09-30T14:28:23.020Z,99032.97
2022-09-30T14:31:14.941Z,99030.81
2022-09-30T14:34:00.620Z,99022.00
2022-09-30T14:36:46.533Z,99023.72
2022-09-30T14:39:34.092Z,99028.78
2022-09-30T14:42:29.866Z,99030.59
2022-09-30T14:45:26.957Z,99024.00
2022-09-30T14:48:22.897Z,99019.38
2022-09-30T14:51:16.238Z,99027.00
2022-09-30T14:54:03.035Z,99034.28
2022-09-30T14:56:49.821Z,99042.97
2022-09-30T14:59:38.308Z,99047.75
2022-09-30T15:02:26.642Z,99041.13
2022-09-30T15:05:15.288Z,99035.97
2022-09-30T15:08:01.177Z,99041.66
2022-09-30T15:10:49.000Z,99039.47
2022-09-30T15:13:36.191Z,99047.38
2022-09-30T15:16:28.098Z,99041.97
2022-09-30T15:19:24.082Z,99050.66
2022-09-30T15:22:13.279Z,99050.25
2022-09-30T15:24:59.936Z,99051.44
2022-09-30T15:27:45.704Z,99058.97
2022-09-30T15:30:33.139Z,99053.88
2022-09-30T15:33:24.160Z,99066.13
2022-09-30T15:36:28.799Z,99056.25
2022-09-30T15:39:22.734Z,99065.25
2022-09-30T15:42:08.409Z,99052.22
2022-09-30T15:44:53.673Z,99064.72
2022-09-30T15:48:13.374Z,99064.91
2022-09-30T15:51:01.494Z,99076.19
2022-09-30T15:53:48.474Z,99079.91
2022-09-30T15:56:37.131Z,99086.19
2022-09-30T15:59:23.229Z,99079.53
2022-09-30T16:02:11.379Z,99085.09
2022-09-30T16:04:58.723Z,99077.41
2022-09-30T16:07:44.457Z,99083.69
2022-09-30T16:10:30.417Z,99085.47
2022-09-30T16:13:16.567Z,99078.38
2022-09-30T16:16:02.459Z,99091.63
2022-09-30T16:18:49.168Z,99098.75
2022-09-30T16:21:45.267Z,99094.66
2022-09-30T16:24:32.316Z,99084.38
2022-09-30T16:27:31.365Z,99092.41
2022-09-30T16:30:19.206Z,99094.25
2022-09-30T16:33:06.284Z,99102.44
2022-09-30T16:35:52.172Z,99101.03
2022-09-30T16:38:38.902Z,99092.56
2022-09-30T16:41:26.075Z,99103.38
2022-09-30T16:44:11.449Z,99111.63
2022-09-30T16:46:56.693Z,99110.22
2022-09-30T16:49:43.322Z,99110.53
2022-09-30T16:52:28.708Z,99112.78
2022-09-30T16:58:05.519Z,99105.19
2022-09-30T17:00:52.420Z,99108.81
2022-09-30T17:03:37.995Z,99096.75
2022-09-30T17:06:32.068Z,99104.88
2022-09-30T17:09:17.811Z,99112.41
2022-09-30T17:12:03.242Z,99127.56
2022-09-30T17:14:49.201Z,99128.69
2022-09-30T17:17:34.740Z,99126.19
2022-09-30T17:20:21.422Z,99128.06
2022-09-30T17:23:07.626Z,99129.94
2022-09-30T17:25:54.866Z,99126.63
2022-09-30T17:28:40.667Z,99138.22
2022-09-30T17:31:26.260Z,99141.28
2022-09-30T17:34:12.201Z,99145.09
2022-09-30T17:36:58.118Z,99145.41
2022-09-30T17:39:43.574Z,99154.38
2022-09-30T17:42:47.563Z,99156.25
2022-09-30T17:45:41.985Z,99157.44
2022-09-30T17:48:27.280Z,99170.06
2022-09-30T17:51:13.351Z,99170.50
2022-09-30T17:53:58.897Z,99184.69
2022-09-30T17:56:44.707Z,99192.81
2022-09-30T17:59:30.128Z,99198.19
2022-09-30T18:02:17.758Z,99182.75
2022-09-30T18:05:03.907Z,99189.88
2022-09-30T18:07:49.593Z,99190.13
2022-09-30T18:10:38.725Z,99202.47
2022-09-30T18:13:28.546Z,99205.31
2022-09-30T18:16:13.896Z,99202.06
2022-09-30T18:19:05.378Z,99206.69
2022-09-30T18:21:50.907Z,99213.91
2022-09-30T18:24:55.528Z,99226.34
2022-09-30T18:27:41.015Z,99226.34
2022-09-30T18:30:26.998Z,99214.34
2022-09-30T18:33:13.491Z,99212.91
2022-09-30T18:36:01.100Z,99217.50
2022-09-30T18:38:46.959Z,99217.56
2022-09-30T18:41:35.346Z,99222.00
2022-09-30T18:44:21.369Z,99222.03
2022-09-30T18:47:06.938Z,99230.97
2022-09-30T18:49:52.454Z,99236.13
2022-09-30T18:52:38.570Z,99221.16
2022-09-30T18:55:25.090Z,99211.34
2022-09-30T18:58:10.719Z,99212.22
2022-09-30T19:00:56.876Z,99212.22
2022-09-30T19:03:42.428Z,99214.03
2022-09-30T19:06:27.746Z,99203.72
2022-09-30T19:09:14.358Z,99198.59
2022-09-30T19:12:01.741Z,99211.75
2022-09-30T19:14:47.962Z,99208.19
2022-09-30T19:17:33.829Z,99207.25
2022-09-30T19:20:19.711Z,99204.78
2022-09-30T19:23:08.907Z,99199.84
2022-09-30T19:25:54.418Z,99211.41
2022-09-30T19:28:40.172Z,99197.47
2022-09-30T19:31:26.338Z,99205.31
2022-09-30T19:34:16.794Z,99216.75
2022-09-30T19:37:07.169Z,99221.00
2022-09-30T19:39:55.235Z,99214.88
2022-09-30T19:42:41.852Z,99222.78
2022-09-30T19:45:28.178Z,99240.34
2022-09-30T19:48:13.779Z,99237.97
2022-09-30T19:51:10.751Z,99232.97
2022-09-30T19:54:05.176Z,99250.53
2022-09-30T19:56:52.683Z,99246.25
2022-09-30T19:59:38.048Z,99256.81
2022-09-30T20:02:24.382Z,99250.88
2022-09-30T20:05:10.054Z,99261.34
2022-09-30T20:07:55.851Z,99260.47
2022-09-30T20:10:41.647Z,99262.19
2022-09-30T20:13:26.966Z,99275.19
2022-09-30T20:16:15.070Z,99263.16
2022-09-30T20:19:00.711Z,99267.59
2022-09-30T20:21:46.949Z,99273.69
2022-09-30T20:24:32.360Z,99274.56
2022-09-30T20:27:17.727Z,99288.38
2022-09-30T20:30:03.265Z,99287.56
2022-09-30T20:32:49.097Z,99289.38
2022-09-30T20:35:37.323Z,99303.25
2022-09-30T20:38:25.078Z,99302.47
2022-09-30T20:41:10.652Z,99315.47
2022-09-30T20:43:56.429Z,99311.91
2022-09-30T20:46:42.530Z,99302.25
2022-09-30T20:49:28.742Z,99306.53
2022-09-30T20:52:14.694Z,99309.09
2022-09-30T20:55:00.489Z,99313.50
2022-09-30T20:57:46.150Z,99317.16
2022-09-30T21:00:35.268Z,99325.22
2022-09-30T21:03:21.566Z,99323.63
2022-09-30T21:06:11.199Z,99321.13
2022-09-30T21:08:57.316Z,99339.41
2022-09-30T21:11:42.777Z,99351.34
2022-09-30T21:14:28.357Z,99340.75
2022-09-30T21:17:13.963Z,99353.69
2022-09-30T21:19:59.827Z,99359.75
2022-09-30T21:22:45.351Z,99356.16
2022-09-30T21:25:31.151Z,99367.47
2022-09-30T21:28:16.807Z,99371.91
2022-09-30T21:31:08.058Z,99374.53
2022-09-30T21:33:58.682Z,99387.00
2022-09-30T21:36:45.292Z,99386.38
2022-09-30T21:39:30.846Z,99385.59
2022-09-30T21:42:16.603Z,99391.84
2022-09-30T21:45:02.765Z,99392.88
2022-09-30T21:47:49.904Z,99398.13
2022-09-30T21:50:36.778Z,99405.06
2022-09-30T21:53:27.310Z,99401.78
2022-09-30T21:56:13.193Z,99410.59
2022-09-30T21:58:58.763Z,99416.72
2022-09-30T22:01:44.473Z,99415.03
2022-09-30T22:04:29.905Z,99420.47
2022-09-30T22:07:15.630Z,99414.56
2022-09-30T22:10:01.206Z,99412.22
2022-09-30T22:12:46.779Z,99414.13
2022-09-30T22:15:34.952Z,99412.47
2022-09-30T22:18:21.630Z,99413.53
2022-09-30T22:21:12.188Z,99412.81
2022-09-30T22:23:58.482Z,99419.94
2022-09-30T22:26:44.878Z,99427.81
2022-09-30T22:29:32.514Z,99427.00
2022-09-30T22:32:17.873Z,99421.84
2022-09-30T22:35:22.517Z,99427.16
2022-09-30T22:38:17.155Z,99425.34
2022-09-30T22:41:03.028Z,99435.00
2022-09-30T22:43:48.970Z,99440.28
2022-09-30T22:46:35.190Z,99443.81
2022-09-30T22:49:21.855Z,99443.00
2022-09-30T22:52:07.331Z,99446.44
2022-09-30T22:54:53.955Z,99442.13
2022-09-30T22:57:39.374Z,99450.84
2022-09-30T23:00:24.780Z,99457.84
2022-09-30T23:03:10.244Z,99446.47
2022-09-30T23:06:05.607Z,99452.69
2022-09-30T23:08:52.579Z,99456.31
2022-09-30T23:11:39.358Z,99460.56
2022-09-30T23:14:25.081Z,99465.81
2022-09-30T23:17:10.535Z,99464.03
2022-09-30T23:19:55.909Z,99464.03
2022-09-30T23:22:41.105Z,99476.22
2022-09-30T23:25:26.442Z,99467.59
2022-09-30T23:28:11.890Z,99473.72
2022-09-30T23:31:03.436Z,99468.59
2022-09-30T23:33:50.831Z,99481.66
2022-09-30T23:36:37.335Z,99477.31
2022-09-30T23:39:22.768Z,99485.09
2022-09-30T23:42:08.199Z,99486.81
2022-09-30T23:44:53.860Z,99479.03
2022-09-30T23:47:39.232Z,99492.91
2022-09-30T23:50:25.394Z,99504.97
2022-09-30T23:53:11.104Z,99499.63
2022-09-30T23:55:58.743Z,99515.38
2022-09-30T23:58:45.848Z,99517.09
